Time;durP1;ratioP1;P1;durP2;ratioP2;P2;SDS_P1;SDS_P2;PMS_P1;PMS_P2;Temp;Humidity;BMP_temperature;BMP_pressure;BME280_temperature;BME280_humidity;BME280_pressure;Samples;Min_cycle;Max_cycle;Signal;HPM_P1;HPM_P2
2022/03/08 00:02:17;;;;;;;21.20;14.32;;;4.90;95.20;;;;;;5100035;28;20063;-75
2022/03/08 00:04:43;;;;;;;25.08;14.57;;;4.90;95.10;;;;;;5100211;28;20028;-74
2022/03/08 00:07:10;;;;;;;27.15;15.07;;;4.90;95.20;;;;;;5083413;28;20048;-73
2022/03/08 00:09:35;;;;;;;22.00;13.68;;;4.90;95.20;;;;;;5083071;28;20028;-73
2022/03/08 00:12:02;;;;;;;21.90;14.02;;;4.90;95.20;;;;;;5099881;28;20060;-74
2022/03/08 00:14:28;;;;;;;21.33;12.35;;;4.90;95.30;;;;;;5066503;28;20099;-73
2022/03/08 00:16:55;;;;;;;21.10;14.30;;;4.90;95.10;;;;;;5066117;28;20017;-75
2022/03/08 00:19:20;;;;;;;21.52;13.68;;;4.90;95.30;;;;;;5082891;28;20035;-74
2022/03/08 00:21:46;;;;;;;19.75;13.35;;;4.90;95.20;;;;;;5066520;28;20016;-73
2022/03/08 00:24:12;;;;;;;25.92;15.18;;;4.90;95.20;;;;;;5083062;28;20334;-74
2022/03/08 00:26:38;;;;;;;24.38;14.93;;;4.90;95.20;;;;;;5065915;28;20035;-75
2022/03/08 00:29:04;;;;;;;24.90;14.82;;;4.90;95.10;;;;;;5065776;28;20036;-73
2022/03/08 00:31:30;;;;;;;24.40;13.95;;;5.00;95.10;;;;;;5065910;28;20027;-73
2022/03/08 00:33:56;;;;;;;25.98;15.15;;;4.90;95.00;;;;;;5083060;28;20013;-74
2022/03/08 00:36:22;;;;;;;21.65;14.13;;;5.00;95.00;;;;;;5065988;28;20017;-74
2022/03/08 00:38:47;;;;;;;25.42;15.88;;;5.00;94.90;;;;;;5065644;28;20027;-72
2022/03/08 00:41:13;;;;;;;26.15;14.63;;;5.00;94.80;;;;;;5083250;28;20024;-74
2022/03/08 00:43:39;;;;;;;23.52;14.90;;;5.00;94.80;;;;;;5099615;28;20024;-72
2022/03/08 00:46:05;;;;;;;27.83;15.13;;;5.00;94.70;;;;;;5065363;28;20027;-73
2022/03/08 00:48:31;;;;;;;24.13;15.23;;;5.00;94.70;;;;;;5081738;28;20043;-72
2022/03/08 00:50:56;;;;;;;21.60;15.27;;;5.00;94.60;;;;;;5082152;28;20048;-75
2022/03/08 00:53:22;;;;;;;26.20;14.98;;;5.00;94.50;;;;;;5082339;28;20045;-73
2022/03/08 00:55:52;;;;;;;24.50;14.98;;;5.00;94.50;;;;;;5082793;28;20296;-75
2022/03/08 00:58:18;;;;;;;24.90;14.95;;;5.10;94.50;;;;;;5066680;28;20028;-73
2022/03/08 01:00:44;;;;;;;26.00;15.18;;;5.00;94.50;;;;;;5081828;28;20059;-74
2022/03/08 01:03:10;;;;;;;24.55;15.98;;;5.00;94.40;;;;;;5082568;28;20027;-75
2022/03/08 01:05:36;;;;;;;26.15;14.98;;;5.00;94.50;;;;;;5082535;28;20066;-75
2022/03/08 01:08:03;;;;;;;24.92;15.75;;;5.00;94.40;;;;;;5082490;28;20296;-73
2022/03/08 01:10:29;;;;;;;27.52;15.98;;;5.00;94.40;;;;;;5082402;28;20035;-73
2022/03/08 01:12:56;;;;;;;29.90;16.30;;;5.10;94.50;;;;;;5089137;28;20017;-73
2022/03/08 01:15:24;;;;;;;26.00;16.02;;;5.10;94.30;;;;;;5045464;28;20327;-73
2022/03/08 01:17:50;;;;;;;23.48;16.00;;;5.10;94.10;;;;;;5062473;28;20304;-73
2022/03/08 01:20:16;;;;;;;28.48;16.98;;;5.20;93.90;;;;;;5046046;28;20053;-74
2022/03/08 01:22:42;;;;;;;28.38;16.60;;;5.20;93.80;;;;;;5062359;28;20016;-72
2022/03/08 01:25:12;;;;;;;26.58;16.85;;;5.20;93.70;;;;;;5045439;28;20021;-73
2022/03/08 01:27:39;;;;;;;31.60;17.25;;;5.30;93.50;;;;;;5062038;28;20032;-73
2022/03/08 01:30:08;;;;;;;30.13;17.67;;;5.30;93.40;;;;;;5063238;28;20025;-73
2022/03/08 01:32:34;;;;;;;28.20;17.75;;;5.30;93.20;;;;;;5045541;28;20021;-74
2022/03/08 01:35:00;;;;;;;31.95;18.02;;;5.30;93.20;;;;;;5045685;28;20024;-74
2022/03/08 01:37:25;;;;;;;25.88;18.15;;;5.30;93.20;;;;;;5045890;28;20025;-74
2022/03/08 01:39:51;;;;;;;28.65;17.55;;;5.30;93.20;;;;;;5062132;28;20029;-73
2022/03/08 01:42:23;;;;;;;28.70;17.48;;;5.30;93.10;;;;;;5062063;28;20017;-73
2022/03/08 01:44:50;;;;;;;28.70;17.17;;;5.30;93.00;;;;;;5045629;28;20029;-78
2022/03/08 01:47:18;;;;;;;31.35;18.45;;;5.30;93.10;;;;;;5062058;28;20084;-74
2022/03/08 01:49:46;;;;;;;31.60;18.23;;;5.20;93.20;;;;;;5043683;28;20021;-75
2022/03/08 01:52:12;;;;;;;28.05;17.58;;;5.20;93.20;;;;;;5062795;28;20096;-74
2022/03/08 01:54:38;;;;;;;29.60;18.75;;;5.10;93.30;;;;;;5045486;28;20083;-74
2022/03/08 01:57:05;;;;;;;29.95;16.83;;;5.00;93.40;;;;;;5062730;28;20211;-74
2022/03/08 01:59:31;;;;;;;27.00;18.80;;;4.90;93.50;;;;;;5081752;28;20024;-73
2022/03/08 02:01:57;;;;;;;35.05;19.05;;;4.80;93.80;;;;;;5065329;28;20216;-73
2022/03/08 02:04:23;;;;;;;36.72;17.40;;;4.70;93.90;;;;;;5065574;28;20017;-74
2022/03/08 02:06:49;;;;;;;29.50;18.00;;;4.70;94.00;;;;;;5049014;28;20147;-74
2022/03/08 02:09:15;;;;;;;26.95;17.55;;;4.60;94.20;;;;;;5066499;28;20032;-74
2022/03/08 02:11:42;;;;;;;28.77;17.73;;;4.60;94.30;;;;;;5064951;28;20100;-75
2022/03/08 02:14:08;;;;;;;30.77;18.20;;;4.50;94.40;;;;;;5068208;28;20029;-74
2022/03/08 02:16:34;;;;;;;30.92;17.80;;;4.50;94.50;;;;;;5085443;28;20023;-72
2022/03/08 02:18:59;;;;;;;27.23;18.60;;;4.50;94.50;;;;;;5068662;28;20021;-72
2022/03/08 02:21:25;;;;;;;30.95;19.17;;;4.40;94.50;;;;;;5085270;28;20329;-73
2022/03/08 02:23:52;;;;;;;34.22;18.38;;;4.40;94.70;;;;;;5085271;28;20016;-73
2022/03/08 02:26:20;;;;;;;28.63;18.40;;;4.30;94.80;;;;;;5085006;28;20028;-74
2022/03/08 02:28:46;;;;;;;30.55;18.75;;;4.30;94.90;;;;;;5084903;28;20024;-72
2022/03/08 02:31:12;;;;;;;29.85;19.40;;;4.30;95.20;;;;;;5084701;28;20281;-71
2022/03/08 02:33:38;;;;;;;28.35;18.00;;;4.20;95.00;;;;;;5068325;28;20347;-71
2022/03/08 02:36:06;;;;;;;32.25;19.20;;;4.20;95.00;;;;;;5084827;28;20021;-73
2022/03/08 02:38:32;;;;;;;31.27;18.70;;;4.20;95.10;;;;;;5085044;28;20016;-72
2022/03/08 02:40:57;;;;;;;32.95;19.73;;;4.20;95.20;;;;;;5084888;28;20028;-74
2022/03/08 02:43:23;;;;;;;31.02;19.45;;;4.10;95.40;;;;;;5084843;28;20325;-72
2022/03/08 02:45:49;;;;;;;31.60;19.08;;;4.10;95.40;;;;;;5067807;28;20028;-71
2022/03/08 02:48:15;;;;;;;33.90;19.05;;;4.10;95.40;;;;;;5084986;28;20096;-71
2022/03/08 02:50:41;;;;;;;31.73;18.98;;;4.10;95.50;;;;;;5099819;28;20280;-72
2022/03/08 02:53:07;;;;;;;30.08;18.88;;;4.00;95.60;;;;;;5085580;28;20060;-73
2022/03/08 02:55:34;;;;;;;29.90;18.05;;;4.00;95.70;;;;;;5085694;28;20046;-72
2022/03/08 02:58:01;;;;;;;35.78;19.65;;;4.00;95.70;;;;;;5084858;28;20254;-75
2022/03/08 03:00:29;;;;;;;33.08;18.98;;;4.00;95.80;;;;;;5084120;28;20024;-72
2022/03/08 03:02:55;;;;;;;32.83;19.75;;;3.90;95.90;;;;;;5084059;28;20020;-73
2022/03/08 03:05:21;;;;;;;39.53;19.83;;;3.90;95.90;;;;;;5084289;28;20062;-72
2022/03/08 03:07:47;;;;;;;34.92;19.08;;;3.90;96.00;;;;;;5084095;28;20024;-73
2022/03/08 03:10:16;;;;;;;34.63;19.70;;;3.90;96.00;;;;;;5083921;28;20024;-71
2022/03/08 03:12:43;;;;;;;36.80;19.85;;;3.90;96.20;;;;;;5092786;28;20016;-73
2022/03/08 03:15:10;;;;;;;32.70;19.25;;;3.90;96.20;;;;;;5065359;28;20111;-72
2022/03/08 03:17:36;;;;;;;30.13;18.90;;;3.90;96.30;;;;;;5063765;28;20250;-76
2022/03/08 03:20:05;;;;;;;34.00;19.40;;;3.90;96.30;;;;;;5064258;28;20029;-71
2022/03/08 03:22:30;;;;;;;35.30;20.02;;;3.80;96.30;;;;;;5063475;28;20021;-73
2022/03/08 03:24:56;;;;;;;33.33;19.38;;;3.80;96.30;;;;;;5063959;28;20059;-72
2022/03/08 03:27:23;;;;;;;36.05;19.95;;;3.80;96.40;;;;;;5065084;28;20025;-72
2022/03/08 03:29:48;;;;;;;34.35;20.67;;;3.80;96.50;;;;;;5063839;28;20036;-72
2022/03/08 03:32:14;;;;;;;31.83;19.35;;;3.80;96.50;;;;;;5063791;28;20017;-74
2022/03/08 03:34:40;;;;;;;33.40;19.02;;;3.80;96.50;;;;;;5064891;28;20032;-71
2022/03/08 03:37:06;;;;;;;34.10;20.55;;;3.70;96.60;;;;;;5063825;28;20373;-73
2022/03/08 03:39:31;;;;;;;39.28;21.27;;;3.70;96.80;;;;;;5046761;28;20039;-72
2022/03/08 03:41:57;;;;;;;35.53;19.67;;;3.70;96.90;;;;;;5080113;28;20092;-74
2022/03/08 03:44:23;;;;;;;34.28;19.77;;;3.60;97.00;;;;;;5064625;28;20013;-73
2022/03/08 03:46:49;;;;;;;34.95;20.08;;;3.60;97.10;;;;;;5063388;28;20272;-71
2022/03/08 03:49:14;;;;;;;30.00;18.75;;;3.50;97.30;;;;;;5063401;28;20031;-73
2022/03/08 03:51:41;;;;;;;32.38;18.42;;;3.50;97.40;;;;;;5062780;28;20025;-73
2022/03/08 03:54:07;;;;;;;33.92;18.85;;;3.40;97.70;;;;;;5046829;28;20035;-74
2022/03/08 03:56:33;;;;;;;31.45;18.85;;;3.40;97.50;;;;;;5046988;28;20024;-73
2022/03/08 03:58:59;;;;;;;32.28;19.20;;;3.40;97.70;;;;;;5063155;28;20052;-72
2022/03/08 04:01:24;;;;;;;32.92;19.80;;;3.30;97.80;;;;;;5063341;28;20012;-73
2022/03/08 04:03:50;;;;;;;33.42;19.17;;;3.30;97.80;;;;;;5046448;28;20052;-73
2022/03/08 04:06:16;;;;;;;35.25;18.70;;;3.30;98.00;;;;;;5046411;28;20024;-75
2022/03/08 04:08:42;;;;;;;35.95;19.98;;;3.20;98.10;;;;;;5062972;28;20059;-74
2022/03/08 04:11:08;;;;;;;32.95;19.05;;;3.20;98.30;;;;;;5063290;28;20021;-72
2022/03/08 04:13:33;;;;;;;32.72;19.15;;;3.20;98.30;;;;;;5078094;28;20037;-71
2022/03/08 04:15:59;;;;;;;39.53;19.77;;;3.10;98.30;;;;;;5066732;28;20067;-73
2022/03/08 04:18:25;;;;;;;31.60;18.05;;;3.10;98.40;;;;;;5066491;28;20066;-73
2022/03/08 04:20:50;;;;;;;39.45;19.17;;;3.10;98.50;;;;;;5082515;28;20021;-72
2022/03/08 04:23:16;;;;;;;29.38;18.60;;;3.10;98.60;;;;;;5083126;28;20282;-73
2022/03/08 04:25:42;;;;;;;36.78;18.60;;;3.00;98.70;;;;;;5066150;28;20365;-76
2022/03/08 04:28:07;;;;;;;31.77;18.63;;;2.90;98.80;;;;;;5082798;28;20028;-72
2022/03/08 04:30:33;;;;;;;31.60;19.55;;;2.90;98.90;;;;;;5082643;28;20028;-73
2022/03/08 04:32:59;;;;;;;30.48;18.73;;;2.90;99.10;;;;;;5082871;28;20028;-72
2022/03/08 04:35:25;;;;;;;30.42;17.83;;;2.90;99.20;;;;;;5082951;28;20054;-73
2022/03/08 04:37:51;;;;;;;32.92;18.50;;;2.80;99.50;;;;;;5082761;28;20024;-73
2022/03/08 04:40:16;;;;;;;29.60;17.27;;;2.80;99.70;;;;;;5082729;28;20020;-74
2022/03/08 04:42:43;;;;;;;31.58;16.65;;;2.80;99.70;;;;;;5083897;28;20020;-72
2022/03/08 04:45:11;;;;;;;34.03;18.30;;;2.70;99.60;;;;;;5082796;28;20026;-74
2022/03/08 04:47:37;;;;;;;29.25;18.27;;;2.70;99.70;;;;;;5082687;28;20165;-72
2022/03/08 04:50:06;;;;;;;33.08;18.52;;;2.60;99.70;;;;;;5065743;28;20024;-72
2022/03/08 04:52:32;;;;;;;32.22;17.98;;;2.60;99.90;;;;;;5082181;28;20035;-73
2022/03/08 04:54:57;;;;;;;31.45;17.63;;;2.60;99.90;;;;;;5065757;28;20024;-73
2022/03/08 04:57:23;;;;;;;33.65;18.23;;;2.60;99.90;;;;;;5082391;28;20026;-72
2022/03/08 04:59:49;;;;;;;34.83;18.48;;;2.60;99.90;;;;;;5083719;28;20048;-71
2022/03/08 05:02:14;;;;;;;34.55;19.10;;;2.60;99.90;;;;;;5099507;28;20021;-73
2022/03/08 05:04:40;;;;;;;34.10;18.63;;;2.50;99.90;;;;;;5082314;28;20332;-72
2022/03/08 05:07:06;;;;;;;39.55;19.08;;;2.50;99.90;;;;;;5065803;28;20024;-73
2022/03/08 05:09:32;;;;;;;32.65;18.23;;;2.50;99.90;;;;;;5082383;28;20020;-72
2022/03/08 05:11:58;;;;;;;31.48;17.80;;;2.50;99.90;;;;;;5063657;28;20024;-71
2022/03/08 05:14:24;;;;;;;34.08;18.23;;;2.50;99.90;;;;;;5045530;28;20029;-73
2022/03/08 05:16:52;;;;;;;32.90;18.35;;;2.50;99.90;;;;;;5062549;28;20063;-75
2022/03/08 05:19:17;;;;;;;36.08;19.40;;;2.40;99.90;;;;;;5062104;28;20020;-72
2022/03/08 05:21:43;;;;;;;35.70;19.02;;;2.40;99.90;;;;;;5045700;28;20031;-73
2022/03/08 05:24:09;;;;;;;34.17;18.30;;;2.40;99.90;;;;;;5062202;28;20044;-74
2022/03/08 05:26:37;;;;;;;34.45;19.40;;;2.40;99.90;;;;;;5062420;28;20056;-72
2022/03/08 05:29:04;;;;;;;35.92;18.42;;;2.40;99.90;;;;;;5061500;28;20032;-73
2022/03/08 05:31:30;;;;;;;34.25;19.63;;;2.40;99.90;;;;;;5062330;28;20059;-73
2022/03/08 05:33:56;;;;;;;35.45;19.45;;;2.50;99.90;;;;;;5065504;28;20322;-73
2022/03/08 05:36:21;;;;;;;34.10;19.48;;;2.50;99.90;;;;;;5066151;28;20052;-72
2022/03/08 05:38:47;;;;;;;38.75;19.60;;;2.50;99.90;;;;;;5067029;28;20021;-71
2022/03/08 05:41:13;;;;;;;45.80;20.42;;;2.50;99.90;;;;;;5066248;28;20074;-74
2022/03/08 05:43:38;;;;;;;41.75;20.42;;;2.50;99.90;;;;;;5066120;28;20189;-73
2022/03/08 05:46:04;;;;;;;33.92;18.42;;;2.50;99.90;;;;;;5066650;28;20115;-73
2022/03/08 05:48:30;;;;;;;33.38;18.80;;;2.50;99.90;;;;;;5049422;28;20185;-73
2022/03/08 05:50:56;;;;;;;40.63;19.48;;;2.60;99.90;;;;;;5048905;28;20020;-73
2022/03/08 05:53:21;;;;;;;35.53;19.70;;;2.60;99.90;;;;;;5047031;28;20311;-73
2022/03/08 05:55:47;;;;;;;34.22;19.33;;;2.60;99.90;;;;;;5048838;28;20021;-73
2022/03/08 05:58:13;;;;;;;34.72;20.08;;;2.60;99.90;;;;;;5065989;28;20092;-73
2022/03/08 06:00:38;;;;;;;35.63;18.70;;;2.60;99.90;;;;;;5048826;28;20035;-74
2022/03/08 06:03:04;;;;;;;41.55;19.40;;;2.60;99.90;;;;;;5065737;28;20060;-73
2022/03/08 06:05:30;;;;;;;40.40;18.90;;;2.60;99.90;;;;;;5065576;28;20032;-72
2022/03/08 06:07:55;;;;;;;32.22;18.23;;;2.60;99.90;;;;;;5065332;28;20028;-74
2022/03/08 06:10:21;;;;;;;38.83;18.88;;;2.60;99.90;;;;;;5065665;28;20029;-73
2022/03/08 06:12:47;;;;;;;38.70;18.08;;;2.60;99.90;;;;;;5073999;28;20040;-74
2022/03/08 06:15:13;;;;;;;33.10;18.38;;;2.50;99.90;;;;;;5085453;28;20033;-73
2022/03/08 06:17:38;;;;;;;36.35;19.85;;;2.50;99.90;;;;;;5102087;28;20024;-74
2022/03/08 06:20:05;;;;;;;31.25;17.83;;;2.60;99.90;;;;;;5085630;28;20060;-74
2022/03/08 06:22:30;;;;;;;37.80;20.23;;;2.60;99.90;;;;;;5085519;28;20020;-74
2022/03/08 06:24:56;;;;;;;35.13;18.45;;;2.60;99.90;;;;;;5085415;28;20106;-74
2022/03/08 06:27:22;;;;;;;37.40;19.98;;;2.60;99.90;;;;;;5085143;28;20024;-75
2022/03/08 06:29:47;;;;;;;37.72;18.88;;;2.60;99.90;;;;;;5086068;28;20035;-74
2022/03/08 06:32:13;;;;;;;36.40;19.65;;;2.60;99.90;;;;;;5085221;28;20033;-72
2022/03/08 06:34:39;;;;;;;35.67;18.38;;;2.60;99.90;;;;;;5085068;28;20024;-73
2022/03/08 06:37:04;;;;;;;39.42;19.35;;;2.60;99.90;;;;;;5084975;28;20028;-73
2022/03/08 06:39:30;;;;;;;37.38;19.25;;;2.60;99.90;;;;;;5084898;28;20020;-72
2022/03/08 06:41:56;;;;;;;42.08;20.40;;;2.60;99.90;;;;;;5084442;28;20042;-73
2022/03/08 06:44:22;;;;;;;36.17;19.50;;;2.60;99.90;;;;;;5084466;28;20020;-74
2022/03/08 06:46:47;;;;;;;41.83;19.92;;;2.60;99.90;;;;;;5084292;28;20336;-73
2022/03/08 06:49:14;;;;;;;43.60;21.45;;;2.60;99.90;;;;;;5084514;28;20069;-75
2022/03/08 06:51:40;;;;;;;36.50;18.55;;;2.60;99.90;;;;;;5084515;28;20377;-73
2022/03/08 06:54:08;;;;;;;42.22;20.15;;;2.60;99.90;;;;;;5066196;28;20032;-75
2022/03/08 06:56:34;;;;;;;40.05;19.45;;;2.60;99.90;;;;;;5067536;28;20020;-73
2022/03/08 06:59:02;;;;;;;40.42;21.60;;;2.60;99.90;;;;;;5084246;28;20242;-75
2022/03/08 07:01:28;;;;;;;36.55;19.67;;;2.70;99.90;;;;;;5084463;28;20307;-75
2022/03/08 07:03:54;;;;;;;45.42;20.88;;;2.70;99.90;;;;;;5101234;28;20163;-74
2022/03/08 07:06:20;;;;;;;45.38;21.17;;;2.70;99.90;;;;;;5085347;28;20025;-76
2022/03/08 07:08:46;;;;;;;40.28;20.10;;;2.80;99.90;;;;;;5083779;28;20024;-75
2022/03/08 07:11:11;;;;;;;38.97;18.38;;;2.80;99.90;;;;;;5083925;28;20315;-75
2022/03/08 07:13:37;;;;;;;41.88;22.05;;;2.90;99.90;;;;;;5064099;28;20020;-74
2022/03/08 07:16:04;;;;;;;43.50;20.98;;;2.90;99.90;;;;;;5080807;28;20025;-74
2022/03/08 07:18:29;;;;;;;35.95;19.85;;;3.00;99.90;;;;;;5064128;28;20334;-76
2022/03/08 07:20:56;;;;;;;39.00;20.25;;;3.00;99.90;;;;;;5080681;28;20025;-75
2022/03/08 07:23:22;;;;;;;39.88;20.05;;;3.10;99.90;;;;;;5080857;28;20027;-77
2022/03/08 07:25:48;;;;;;;38.95;20.92;;;3.10;99.90;;;;;;5063901;28;20021;-75
2022/03/08 07:28:14;;;;;;;38.67;19.83;;;3.10;99.90;;;;;;5080934;28;20028;-76
2022/03/08 07:30:40;;;;;;;40.92;19.70;;;3.30;99.90;;;;;;5063797;28;20299;-76
2022/03/08 07:33:06;;;;;;;42.00;20.88;;;3.30;99.90;;;;;;5080625;28;20052;-78
2022/03/08 07:35:32;;;;;;;33.85;19.65;;;3.40;99.90;;;;;;5063715;28;20032;-75
2022/03/08 07:37:57;;;;;;;39.50;20.65;;;3.50;99.90;;;;;;5064304;28;20040;-75
2022/03/08 07:40:23;;;;;;;41.67;20.98;;;3.60;99.90;;;;;;5065067;28;20280;-77
2022/03/08 07:42:49;;;;;;;36.90;20.50;;;3.80;99.90;;;;;;5064081;28;20029;-77
2022/03/08 07:45:15;;;;;;;50.72;21.05;;;4.00;99.90;;;;;;5047148;28;20027;-78
2022/03/08 07:47:40;;;;;;;39.85;20.00;;;4.20;99.90;;;;;;5063984;28;20311;-77
2022/03/08 07:50:07;;;;;;;31.17;18.85;;;4.30;99.90;;;;;;5063624;28;20107;-76
2022/03/08 07:52:33;;;;;;;39.45;19.80;;;4.40;99.90;;;;;;5080060;28;20024;-76
2022/03/08 07:54:59;;;;;;;45.42;20.30;;;4.40;99.90;;;;;;5044600;28;20037;-79
2022/03/08 07:57:25;;;;;;;37.65;18.83;;;4.40;99.90;;;;;;5046884;28;20315;-77
2022/03/08 07:59:50;;;;;;;40.50;20.77;;;4.40;99.90;;;;;;5064032;28;20212;-77
2022/03/08 08:02:16;;;;;;;40.95;21.48;;;4.50;99.90;;;;;;5046382;28;20021;-77
2022/03/08 08:04:42;;;;;;;46.65;21.58;;;4.50;99.90;;;;;;5046870;28;20145;-75
2022/03/08 08:07:08;;;;;;;39.90;20.25;;;4.70;99.90;;;;;;5046210;28;20223;-80
2022/03/08 08:09:34;;;;;;;39.08;20.63;;;4.90;99.90;;;;;;5046716;28;20017;-77
2022/03/08 08:12:00;;;;;;;38.47;19.58;;;5.00;99.90;;;;;;5046111;28;20024;-78
2022/03/08 08:14:26;;;;;;;38.17;20.83;;;5.10;99.90;;;;;;5076219;28;20092;-77
2022/03/08 08:16:53;;;;;;;43.75;19.95;;;5.20;99.90;;;;;;5083741;28;20032;-79
2022/03/08 08:19:18;;;;;;;42.67;19.80;;;5.30;99.90;;;;;;5066110;28;20056;-80
2022/03/08 08:21:44;;;;;;;38.20;20.13;;;5.30;99.90;;;;;;5066399;28;20058;-77
2022/03/08 08:24:10;;;;;;;35.20;20.02;;;5.30;99.90;;;;;;5082612;28;20087;-73
2022/03/08 08:26:36;;;;;;;48.35;20.33;;;5.50;99.90;;;;;;5082869;28;20028;-73
2022/03/08 08:29:02;;;;;;;33.75;19.48;;;5.60;99.90;;;;;;5082036;28;20025;-74
2022/03/08 08:31:30;;;;;;;39.08;20.98;;;5.60;99.90;;;;;;5097793;28;20016;-75
2022/03/08 08:33:56;;;;;;;42.42;20.60;;;5.60;99.90;;;;;;5066231;28;20070;-73
2022/03/08 08:36:22;;;;;;;37.50;19.63;;;5.70;99.90;;;;;;5078868;28;20043;-74
2022/03/08 08:38:47;;;;;;;40.38;20.02;;;5.70;99.90;;;;;;5072913;28;20363;-74
2022/03/08 08:41:13;;;;;;;39.17;20.50;;;5.70;99.90;;;;;;5063812;28;20028;-74
2022/03/08 08:43:39;;;;;;;40.75;20.98;;;5.80;99.90;;;;;;5075295;28;20021;-74
2022/03/08 08:46:05;;;;;;;39.92;20.95;;;5.70;99.90;;;;;;5073579;28;20027;-72
2022/03/08 08:48:30;;;;;;;37.00;21.38;;;5.80;99.90;;;;;;5062108;28;20078;-72
2022/03/08 08:50:57;;;;;;;38.65;19.33;;;5.90;99.90;;;;;;5062589;28;20091;-73
2022/03/08 08:53:23;;;;;;;44.90;21.10;;;6.00;99.90;;;;;;5082042;28;20033;-74
2022/03/08 08:55:49;;;;;;;47.88;22.85;;;6.00;99.90;;;;;;5082273;28;20016;-70
2022/03/08 08:58:15;;;;;;;37.65;20.63;;;6.20;99.90;;;;;;5065424;28;20067;-74
2022/03/08 09:00:41;;;;;;;33.63;19.77;;;6.20;99.90;;;;;;5098202;28;20211;-77
2022/03/08 09:03:14;;;;;;;42.10;21.02;;;6.30;99.90;;;;;;5077642;28;20028;-71
2022/03/08 09:05:42;;;;;;;33.35;19.30;;;6.30;99.90;;;;;;5070542;28;20020;-73
2022/03/08 09:08:08;;;;;;;39.47;21.17;;;6.30;99.90;;;;;;5064614;28;20032;-77
2022/03/08 09:10:34;;;;;;;41.33;20.58;;;6.30;99.90;;;;;;5083785;28;20025;-76
2022/03/08 09:12:59;;;;;;;41.80;21.17;;;6.40;99.90;;;;;;5100418;28;20047;-78
2022/03/08 09:15:26;;;;;;;41.05;20.88;;;6.60;99.90;;;;;;5085321;28;20021;-76
2022/03/08 09:17:51;;;;;;;33.55;19.88;;;6.80;99.90;;;;;;5085601;28;20037;-76
2022/03/08 09:20:17;;;;;;;40.38;20.88;;;6.90;99.90;;;;;;5068719;28;20020;-76
2022/03/08 09:22:43;;;;;;;43.15;20.05;;;6.90;99.90;;;;;;5067477;28;20032;-74
2022/03/08 09:25:09;;;;;;;41.50;21.23;;;6.80;99.90;;;;;;5082251;28;20076;-74
2022/03/08 09:27:35;;;;;;;47.25;20.90;;;6.80;99.90;;;;;;5065381;28;20021;-75
2022/03/08 09:30:04;;;;;;;44.28;21.13;;;6.90;99.90;;;;;;5081826;28;20021;-75
2022/03/08 09:32:31;;;;;;;38.70;21.40;;;7.00;99.90;;;;;;5065378;28;20021;-78
2022/03/08 09:34:57;;;;;;;39.75;21.50;;;7.00;99.90;;;;;;5064830;28;20051;-76
2022/03/08 09:37:22;;;;;;;44.10;20.73;;;7.10;99.90;;;;;;5064411;28;20025;-77
2022/03/08 09:39:48;;;;;;;36.83;20.75;;;7.20;99.90;;;;;;5074548;28;20009;-77
2022/03/08 09:42:14;;;;;;;45.17;21.17;;;7.20;99.70;;;;;;5048329;28;20212;-74
2022/03/08 09:44:41;;;;;;;43.88;21.17;;;7.20;99.90;;;;;;5081341;28;20332;-78
2022/03/08 09:47:07;;;;;;;38.10;20.70;;;7.20;99.90;;;;;;5078796;28;20045;-77
2022/03/08 09:49:33;;;;;;;40.97;20.42;;;7.30;99.80;;;;;;5064753;28;20399;-76
2022/03/08 09:51:59;;;;;;;37.33;20.58;;;7.50;99.90;;;;;;5064379;28;20048;-74
2022/03/08 09:54:25;;;;;;;41.60;21.25;;;7.50;99.60;;;;;;5064521;28;20017;-74
2022/03/08 09:56:50;;;;;;;41.28;20.27;;;7.60;99.40;;;;;;5063248;28;20091;-77
2022/03/08 09:59:19;;;;;;;49.97;21.38;;;7.70;99.40;;;;;;5082172;28;20032;-80
2022/03/08 10:01:46;;;;;;;50.75;22.55;;;7.80;99.40;;;;;;5085800;28;20026;-80
2022/03/08 10:04:17;;;;;;;39.30;19.58;;;7.90;99.20;;;;;;5085016;28;20043;-77
2022/03/08 10:06:44;;;;;;;39.28;19.17;;;7.80;99.40;;;;;;5084492;28;20219;-80
2022/03/08 10:09:12;;;;;;;39.33;20.45;;;7.90;99.20;;;;;;5084324;28;20024;-78
2022/03/08 10:11:37;;;;;;;42.47;20.08;;;7.70;99.20;;;;;;5084728;28;20021;-76
2022/03/08 10:14:03;;;;;;;37.65;20.02;;;7.80;99.40;;;;;;5081103;28;20024;-78
2022/03/08 10:16:41;;;;;;;38.88;19.67;;;8.00;99.40;;;;;;5064826;28;20017;-76
2022/03/08 10:19:09;;;;;;;35.03;20.20;;;7.90;99.20;;;;;;5064562;28;20033;-75
2022/03/08 10:21:37;;;;;;;40.53;20.20;;;8.10;99.20;;;;;;5048069;28;20021;-81
2022/03/08 10:24:22;;;;;;;44.33;20.90;;;8.10;99.20;;;;;;5064858;28;20017;-74
2022/03/08 10:26:52;;;;;;;35.35;19.17;;;8.10;99.20;;;;;;5047656;28;20063;-75
2022/03/08 10:29:24;;;;;;;44.78;20.35;;;8.10;99.00;;;;;;5064256;28;20300;-73
2022/03/08 10:32:03;;;;;;;36.08;19.30;;;8.10;99.30;;;;;;5047866;28;20100;-73
2022/03/08 10:34:29;;;;;;;38.13;19.35;;;8.00;99.30;;;;;;5063804;28;20036;-75
2022/03/08 10:37:01;;;;;;;34.55;17.40;;;8.00;99.10;;;;;;5064189;28;20036;-78
2022/03/08 10:39:26;;;;;;;;;;;8.00;99.20;;;;;;5064356;28;20013;-77
2022/03/08 10:41:56;;;;;;;39.65;19.63;;;8.10;99.30;;;;;;5065219;28;19958;-79
2022/03/08 10:44:33;;;;;;;38.78;19.70;;;8.20;99.00;;;;;;5063615;28;20021;-78
2022/03/08 10:47:01;;;;;;;36.08;20.25;;;8.40;98.70;;;;;;5047343;28;20056;-78
2022/03/08 10:49:28;;;;;;;37.95;18.30;;;8.50;98.70;;;;;;5061803;28;20031;-77
2022/03/08 10:52:03;;;;;;;36.10;18.17;;;8.60;98.10;;;;;;5063301;28;20116;-79
2022/03/08 10:54:31;;;;;;;37.47;19.00;;;8.60;98.20;;;;;;5063986;28;20087;-74
2022/03/08 10:56:57;;;;;;;37.28;19.80;;;8.70;98.20;;;;;;5062179;28;20047;-78
2022/03/08 10:59:23;;;;;;;38.63;19.33;;;8.80;97.90;;;;;;5099198;28;20020;-78
2022/03/08 11:01:49;;;;;;;34.65;18.00;;;8.90;97.80;;;;;;5100377;28;20080;-75
2022/03/08 11:04:18;;;;;;;35.67;17.95;;;9.00;97.60;;;;;;5083925;28;20024;-78
2022/03/08 11:06:45;;;;;;;35.63;18.38;;;9.10;97.50;;;;;;5079402;28;20024;-77
2022/03/08 11:09:11;;;;;;;33.63;18.48;;;9.40;97.30;;;;;;5047266;28;20032;-83
2022/03/08 11:11:38;;;;;;;34.47;17.55;;;9.70;97.00;;;;;;5064580;28;20055;-80
2022/03/08 11:14:03;;;;;;;38.72;18.35;;;9.80;96.60;;;;;;5083659;28;20021;-74
2022/03/08 11:16:31;;;;;;;33.90;18.80;;;9.90;96.20;;;;;;5066726;28;20049;-78
2022/03/08 11:18:57;;;;;;;39.35;17.50;;;9.90;96.50;;;;;;5066793;28;20192;-77
2022/03/08 11:21:26;;;;;;;35.30;17.30;;;9.90;96.40;;;;;;5083044;28;20059;-80
2022/03/08 11:23:54;;;;;;;39.38;17.23;;;9.90;96.10;;;;;;5084449;28;20012;-79
2022/03/08 11:26:23;;;;;;;42.70;17.75;;;9.80;96.40;;;;;;5083218;28;20278;-73
2022/03/08 11:28:49;;;;;;;35.30;18.48;;;9.80;96.70;;;;;;5098980;28;20361;-77
2022/03/08 11:31:19;;;;;;;48.25;19.25;;;9.70;96.80;;;;;;5083726;28;20028;-72
2022/03/08 11:34:09;;;;;;;38.67;17.77;;;9.70;96.90;;;;;;5083550;28;20215;-76
2022/03/08 11:36:41;;;;;;;32.65;17.08;;;9.80;97.00;;;;;;5099892;28;20020;-77
2022/03/08 11:39:21;;;;;;;55.95;19.17;;;9.70;97.00;;;;;;5083291;28;20131;-80
2022/03/08 11:41:53;;;;;;;48.53;17.50;;;9.80;97.20;;;;;;5067152;28;20029;-80
2022/03/08 11:44:25;;;;;;;39.13;17.77;;;10.00;97.10;;;;;;5082761;28;20012;-76
2022/03/08 11:47:13;;;;;;;34.05;16.38;;;10.10;96.60;;;;;;5066452;28;20056;-74
2022/03/08 11:49:58;;;;;;;37.78;16.45;;;10.10;96.20;;;;;;5068760;28;20096;-72
2022/03/08 11:52:30;;;;;;;54.50;16.25;;;10.30;96.30;;;;;;5082550;28;20095;-77
2022/03/08 11:55:02;;;;;;;37.72;16.25;;;10.40;96.10;;;;;;5083599;28;20061;-75
2022/03/08 11:57:51;;;;;;;35.17;15.80;;;10.50;96.10;;;;;;5063364;28;20016;-74
2022/03/08 12:00:22;;;;;;;35.35;16.67;;;10.50;95.80;;;;;;5075584;28;20020;-78
2022/03/08 12:02:51;;;;;;;30.80;15.17;;;10.60;95.90;;;;;;5061818;28;20024;-77
2022/03/08 12:05:41;;;;;;;29.77;16.05;;;10.60;95.60;;;;;;5062151;28;20029;-77
2022/03/08 12:08:46;;;;;;;31.45;15.80;;;10.60;95.80;;;;;;5061722;28;20033;-76
2022/03/08 12:11:32;;;;;;;35.30;14.73;;;10.60;95.50;;;;;;5073924;28;20025;-77
2022/03/08 12:14:04;;;;;;;39.58;16.02;;;10.60;95.80;;;;;;5080543;28;20095;-76
2022/03/08 12:16:29;;;;;;;35.05;14.55;;;10.60;95.40;;;;;;5065590;28;20027;-79
2022/03/08 12:18:58;;;;;;;27.90;14.82;;;10.70;95.70;;;;;;5083312;28;20028;-75
2022/03/08 12:21:35;;;;;;;33.45;15.95;;;10.80;95.30;;;;;;5083131;28;20016;-76
2022/03/08 12:24:11;;;;;;;32.05;15.35;;;10.90;95.30;;;;;;5082028;28;20269;-76
2022/03/08 12:26:59;;;;;;;34.78;15.98;;;10.90;95.30;;;;;;5066788;28;20316;-76
2022/03/08 12:29:36;;;;;;;31.73;15.45;;;11.00;95.00;;;;;;5065143;28;20095;-76
2022/03/08 12:32:10;;;;;;;34.20;16.42;;;11.00;95.40;;;;;;5066036;28;20066;-76
2022/03/08 12:34:42;;;;;;;25.95;15.02;;;11.20;95.00;;;;;;5065302;28;20024;-79
2022/03/08 12:37:14;;;;;;;31.42;15.13;;;11.10;94.80;;;;;;5081496;28;20304;-79